Climatologie pour Saint-Brevin les Pins
Jour • Résumé pour avril 8, 2017 Système :  Métrique    Anglais   Mixte
« - 1 jour
+ 1 jour »
Jour Semaine Mois Année Personnalisé
  Maximum : Minimum : Moyenne :
Température sous abri : 25.7 °C 6.2 °C 14.3 °C
Point de rosée : 13.3 °C 5.2 °C 9.4 °C
Humidité : 95 % 41 % 75 %
Vitesse du vent : 19.3 km/h 0.0 km/h 4.6 km/h
Rafale : 24.1 km/h - -
Direction :- - ESE
Pression : 1022.9 hPa 1018.2 hPa -
Précipitations : 0.0 mm    
Historical Graphs
 
 
Tableau de données pour avril 8, 2017
Heure Tempé Pt rosée Pression Vent Vitesse Rafale Humidité Taux pluie (/hr) Soleil
00:00 10.9 °C 8.3 °C 1022.6 hPa ENE 3.2 km/h 9.7 km/h 84 % 0.0 mm 0 W/m2
00:05 10.8 °C 8.2 °C 1022.9 hPa ENE 1.6 km/h 8.0 km/h 84 % 0.0 mm 0 W/m2
00:10 10.8 °C 8.2 °C 1022.6 hPa Calm   8.0 km/h 84 % 0.0 mm 0 W/m2
00:15 10.8 °C 8.2 °C 1022.9 hPa ENE 1.6 km/h 6.4 km/h 84 % 0.0 mm 0 W/m2
00:20 10.7 °C 8.1 °C 1022.9 hPa East 4.8 km/h 6.4 km/h 84 % 0.0 mm 0 W/m2
00:25 10.5 °C 8.1 °C 1022.6 hPa East 3.2 km/h 6.4 km/h 85 % 0.0 mm 0 W/m2
00:30 10.3 °C 7.9 °C 1022.6 hPa ENE 1.6 km/h 6.4 km/h 85 % 0.0 mm 0 W/m2
00:35 10.3 °C 7.9 °C 1022.6 hPa East 1.6 km/h 8.0 km/h 85 % 0.0 mm 0 W/m2
00:40 10.0 °C 7.8 °C 1022.6 hPa Calm   8.0 km/h 86 % 0.0 mm 0 W/m2
00:45 9.9 °C 7.7 °C 1022.6 hPa ENE 1.6 km/h 8.0 km/h 86 % 0.0 mm 0 W/m2
00:50 9.8 °C 7.7 °C 1022.6 hPa NE 3.2 km/h 8.0 km/h 87 % 0.0 mm 0 W/m2
00:55 9.8 °C 7.7 °C 1022.6 hPa Calm   6.4 km/h 87 % 0.0 mm 0 W/m2
01:00 9.6 °C 7.7 °C 1022.6 hPa ENE 4.8 km/h 8.0 km/h 88 % 0.0 mm 0 W/m2
01:05 9.5 °C 7.6 °C 1022.6 hPa Calm   8.0 km/h 88 % 0.0 mm 0 W/m2
01:10 9.7 °C 7.9 °C 1022.6 hPa NE 4.8 km/h 11.3 km/h 89 % 0.0 mm 0 W/m2
01:15 9.7 °C 7.8 °C 1022.6 hPa ENE 3.2 km/h 11.3 km/h 88 % 0.0 mm 0 W/m2
01:20 9.8 °C 7.9 °C 1022.6 hPa ENE 4.8 km/h 9.7 km/h 88 % 0.0 mm 0 W/m2
01:25 9.9 °C 7.9 °C 1022.6 hPa ENE 4.8 km/h 8.0 km/h 87 % 0.0 mm 0 W/m2
01:30 10.2 °C 8.1 °C 1022.2 hPa ENE 4.8 km/h 8.0 km/h 87 % 0.0 mm 0 W/m2
01:35 10.3 °C 8.0 °C 1022.2 hPa East 3.2 km/h 8.0 km/h 86 % 0.0 mm 0 W/m2
01:40 10.3 °C 8.0 °C 1022.2 hPa East 3.2 km/h 12.9 km/h 86 % 0.0 mm 0 W/m2
01:45 10.3 °C 8.0 °C 1022.2 hPa ENE 1.6 km/h 12.9 km/h 86 % 0.0 mm 0 W/m2
01:50 10.2 °C 8.0 °C 1022.2 hPa ENE 6.4 km/h 9.7 km/h 86 % 0.0 mm 0 W/m2
01:55 10.2 °C 7.9 °C 1022.2 hPa ENE 3.2 km/h 12.9 km/h 86 % 0.0 mm 0 W/m2
02:00 10.2 °C 8.0 °C 1022.2 hPa East 3.2 km/h 12.9 km/h 86 % 0.0 mm 0 W/m2
02:05 10.3 °C 8.0 °C 1022.2 hPa East 3.2 km/h 11.3 km/h 86 % 0.0 mm 0 W/m2
02:10 10.3 °C 7.9 °C 1022.2 hPa East 6.4 km/h 11.3 km/h 85 % 0.0 mm 0 W/m2
02:15 10.3 °C 7.9 °C 1021.9 hPa ENE 6.4 km/h 11.3 km/h 85 % 0.0 mm 0 W/m2
02:20 10.2 °C 7.8 °C 1021.9 hPa East 4.8 km/h 11.3 km/h 85 % 0.0 mm 0 W/m2
02:25 10.2 °C 7.8 °C 1021.9 hPa ENE 3.2 km/h 11.3 km/h 85 % 0.0 mm 0 W/m2
02:30 10.2 °C 7.9 °C 1021.9 hPa East 8.0 km/h 11.3 km/h 86 % 0.0 mm 0 W/m2
02:35 10.2 °C 7.8 °C 1021.9 hPa East 4.8 km/h 11.3 km/h 85 % 0.0 mm 0 W/m2
02:40 10.2 °C 7.8 °C 1021.9 hPa East 3.2 km/h 11.3 km/h 85 % 0.0 mm 0 W/m2
02:45 10.2 °C 7.8 °C 1021.9 hPa East 4.8 km/h 9.7 km/h 85 % 0.0 mm 0 W/m2
02:50 10.2 °C 7.8 °C 1021.9 hPa East 1.6 km/h 9.7 km/h 85 % 0.0 mm 0 W/m2
02:55 10.2 °C 7.8 °C 1021.9 hPa East 1.6 km/h 8.0 km/h 85 % 0.0 mm 0 W/m2
03:00 10.0 °C 7.6 °C 1021.9 hPa East 1.6 km/h 8.0 km/h 85 % 0.0 mm 0 W/m2
03:05 9.9 °C 7.5 °C 1021.9 hPa East 4.8 km/h 9.7 km/h 85 % 0.0 mm 0 W/m2
03:10 9.7 °C 7.4 °C 1021.9 hPa East 3.2 km/h 9.7 km/h 86 % 0.0 mm 0 W/m2
03:15 9.5 °C 7.3 °C 1021.9 hPa East 1.6 km/h 8.0 km/h 86 % 0.0 mm 0 W/m2
03:20 9.3 °C 7.1 °C 1021.9 hPa East 1.6 km/h 4.8 km/h 86 % 0.0 mm 0 W/m2
03:25 9.0 °C 7.0 °C 1021.9 hPa East 1.6 km/h 4.8 km/h 87 % 0.0 mm 0 W/m2
03:30 8.7 °C 6.8 °C 1021.6 hPa East 1.6 km/h 4.8 km/h 88 % 0.0 mm 0 W/m2
03:35 8.7 °C 7.0 °C 1021.6 hPa East 3.2 km/h 4.8 km/h 89 % 0.0 mm 0 W/m2
03:40 8.5 °C 6.8 °C 1021.6 hPa East 3.2 km/h 6.4 km/h 89 % 0.0 mm 0 W/m2
03:45 8.4 °C 6.9 °C 1021.6 hPa ENE 3.2 km/h 6.4 km/h 90 % 0.0 mm 0 W/m2
03:50 8.7 °C 7.1 °C 1021.6 hPa Calm   6.4 km/h 90 % 0.0 mm 0 W/m2
03:55 8.8 °C 7.1 °C 1021.6 hPa ENE 1.6 km/h 6.4 km/h 89 % 0.0 mm 0 W/m2
04:00 9.0 °C 7.1 °C 1021.6 hPa East 1.6 km/h 9.7 km/h 88 % 0.0 mm 0 W/m2
04:05 9.1 °C 7.2 °C 1021.2 hPa East 1.6 km/h 9.7 km/h 88 % 0.0 mm 0 W/m2
04:10 9.2 °C 7.1 °C 1021.2 hPa East 1.6 km/h 8.0 km/h 87 % 0.0 mm 0 W/m2
04:15 9.2 °C 7.1 °C 1021.2 hPa Calm   6.4 km/h 87 % 0.0 mm 0 W/m2
04:20 9.1 °C 7.1 °C 1021.2 hPa East 1.6 km/h 4.8 km/h 87 % 0.0 mm 0 W/m2
04:25 8.9 °C 6.9 °C 1021.2 hPa Calm   8.0 km/h 87 % 0.0 mm 0 W/m2
04:30 8.8 °C 6.8 °C 1021.2 hPa Calm   8.0 km/h 87 % 0.0 mm 0 W/m2
04:35 8.4 °C 6.6 °C 1021.2 hPa Calm   4.8 km/h 88 % 0.0 mm 0 W/m2
04:40 8.2 °C 6.5 °C 1021.2 hPa Calm   1.6 km/h 89 % 0.0 mm 0 W/m2
04:45 7.9 °C 6.2 °C 1021.2 hPa Calm     89 % 0.0 mm 0 W/m2
04:50 7.8 °C 6.2 °C 1021.2 hPa Calm     90 % 0.0 mm 0 W/m2
04:55 7.7 °C 6.2 °C 1021.2 hPa Calm   3.2 km/h 90 % 0.0 mm 0 W/m2
05:00 7.8 °C 6.2 °C 1021.2 hPa East 1.6 km/h 4.8 km/h 90 % 0.0 mm 0 W/m2
05:05 7.6 °C 6.0 °C 1021.2 hPa East 3.2 km/h 4.8 km/h 90 % 0.0 mm 0 W/m2
05:10 7.4 °C 6.1 °C 1021.2 hPa East 3.2 km/h 4.8 km/h 91 % 0.0 mm 0 W/m2
05:15 7.3 °C 6.0 °C 1021.2 hPa East 4.8 km/h 4.8 km/h 91 % 0.0 mm 0 W/m2
05:20 7.1 °C 5.7 °C 1020.9 hPa East 1.6 km/h 4.8 km/h 91 % 0.0 mm 0 W/m2
05:25 7.0 °C 5.8 °C 1020.9 hPa East 4.8 km/h 4.8 km/h 92 % 0.0 mm 0 W/m2
05:30 6.9 °C 5.7 °C 1020.9 hPa East 1.6 km/h 4.8 km/h 92 % 0.0 mm 0 W/m2
05:35 6.9 °C 5.7 °C 1020.9 hPa East 1.6 km/h 4.8 km/h 92 % 0.0 mm 0 W/m2
05:40 6.7 °C 5.5 °C 1020.9 hPa East 3.2 km/h 4.8 km/h 92 % 0.0 mm 0 W/m2
05:45 6.6 °C 5.6 °C 1020.9 hPa East 1.6 km/h 4.8 km/h 93 % 0.0 mm 0 W/m2
05:50 6.7 °C 5.8 °C 1020.9 hPa East 1.6 km/h 4.8 km/h 94 % 0.0 mm 0 W/m2
05:55 6.7 °C 5.6 °C 1020.9 hPa Calm   3.2 km/h 93 % 0.0 mm 0 W/m2
06:00 6.7 °C 5.6 °C 1020.9 hPa Calm   4.8 km/h 93 % 0.0 mm 0 W/m2
06:05 6.8 °C 5.7 °C 1020.9 hPa Calm   4.8 km/h 93 % 0.0 mm 0 W/m2
06:10 6.6 °C 5.5 °C 1020.9 hPa Calm   8.0 km/h 93 % 0.0 mm 0 W/m2
06:15 6.4 °C 5.4 °C 1020.9 hPa East 3.2 km/h 8.0 km/h 93 % 0.0 mm 0 W/m2
06:20 6.3 °C 5.2 °C 1020.9 hPa East 1.6 km/h 4.8 km/h 93 % 0.0 mm 0 W/m2
06:25 6.2 °C 5.3 °C 1020.9 hPa ENE 3.2 km/h 8.0 km/h 94 % 0.0 mm 0 W/m2
06:30 6.6 °C 5.8 °C 1020.9 hPa ENE 4.8 km/h 8.0 km/h 95 % 0.0 mm 0 W/m2
06:35 6.6 °C 5.7 °C 1020.9 hPa ENE 1.6 km/h 8.0 km/h 94 % 0.0 mm 0 W/m2
06:40 6.6 °C 5.7 °C 1020.9 hPa ENE 1.6 km/h 6.4 km/h 94 % 0.0 mm 0 W/m2
06:45 6.7 °C 5.8 °C 1020.9 hPa ENE 4.8 km/h 8.0 km/h 94 % 0.0 mm 0 W/m2
06:50 6.6 °C 5.7 °C 1020.9 hPa ENE 1.6 km/h 8.0 km/h 94 % 0.0 mm 0 W/m2
06:55 6.7 °C 5.8 °C 1020.9 hPa ENE 3.2 km/h 6.4 km/h 94 % 0.0 mm 0 W/m2
07:00 6.8 °C 5.9 °C 1020.9 hPa ENE 3.2 km/h 8.0 km/h 94 % 0.0 mm 0 W/m2
07:05 6.9 °C 6.0 °C 1020.9 hPa ENE 6.4 km/h 8.0 km/h 94 % 0.0 mm 0 W/m2
07:10 6.9 °C 5.8 °C 1020.9 hPa ENE 11.3 km/h 11.3 km/h 93 % 0.0 mm 0 W/m2
07:15 6.7 °C 5.6 °C 1020.9 hPa ENE 4.8 km/h 11.3 km/h 93 % 0.0 mm 0 W/m2
07:20 6.7 °C 5.8 °C 1020.9 hPa ENE 1.6 km/h 11.3 km/h 94 % 0.0 mm 0 W/m2
07:25 6.8 °C 5.9 °C 1020.9 hPa ENE 8.0 km/h 11.3 km/h 94 % 0.0 mm 0 W/m2
07:30 6.9 °C 6.0 °C 1020.9 hPa ENE 4.8 km/h 12.9 km/h 94 % 0.0 mm 0 W/m2
07:35 7.0 °C 6.1 °C 1020.9 hPa ENE 3.2 km/h 12.9 km/h 94 % 0.0 mm 5 W/m2
07:40 7.0 °C 6.1 °C 1020.9 hPa ENE 4.8 km/h 12.9 km/h 94 % 0.0 mm 7 W/m2
07:45 7.1 °C 6.2 °C 1020.9 hPa ENE 9.7 km/h 12.9 km/h 94 % 0.0 mm 9 W/m2
07:50 7.0 °C 6.1 °C 1020.9 hPa ENE 6.4 km/h 12.9 km/h 94 % 0.0 mm 12 W/m2
07:55 7.2 °C 6.3 °C 1020.9 hPa East 3.2 km/h 14.5 km/h 94 % 0.0 mm 14 W/m2
08:00 7.3 °C 6.4 °C 1020.9 hPa East 3.2 km/h 14.5 km/h 94 % 0.0 mm 18 W/m2
08:05 7.5 °C 6.4 °C 1020.9 hPa ENE 6.4 km/h 12.9 km/h 93 % 0.0 mm 19 W/m2
08:10 7.6 °C 6.6 °C 1020.9 hPa East 3.2 km/h 12.9 km/h 93 % 0.0 mm 23 W/m2
08:15 7.7 °C 6.5 °C 1020.9 hPa East 4.8 km/h 12.9 km/h 92 % 0.0 mm 25 W/m2
08:20 7.9 °C 6.7 °C 1020.9 hPa ENE 4.8 km/h 12.9 km/h 92 % 0.0 mm 28 W/m2
08:25 8.0 °C 6.8 °C 1020.9 hPa East 4.8 km/h 12.9 km/h 92 % 0.0 mm 33 W/m2
08:30 8.2 °C 6.8 °C 1020.9 hPa Calm   11.3 km/h 91 % 0.0 mm 42 W/m2
08:35 8.3 °C 6.9 °C 1020.9 hPa NE 6.4 km/h 11.3 km/h 91 % 0.0 mm 114 W/m2
08:40 8.5 °C 7.0 °C 1020.9 hPa Calm   11.3 km/h 90 % 0.0 mm 128 W/m2
08:45 8.7 °C 7.2 °C 1020.9 hPa Calm   9.7 km/h 90 % 0.0 mm 144 W/m2
08:50 9.0 °C 7.3 °C 1020.9 hPa Calm   9.7 km/h 89 % 0.0 mm 156 W/m2
08:55 9.2 °C 7.5 °C 1020.9 hPa East 8.0 km/h 8.0 km/h 89 % 0.0 mm 174 W/m2
09:00 9.4 °C 7.6 °C 1020.9 hPa ENE 3.2 km/h 9.7 km/h 88 % 0.0 mm 192 W/m2
09:05 9.7 °C 7.7 °C 1020.9 hPa ENE 3.2 km/h 9.7 km/h 87 % 0.0 mm 209 W/m2
09:10 10.0 °C 7.8 °C 1020.9 hPa East 3.2 km/h 12.9 km/h 86 % 0.0 mm 227 W/m2
09:15 10.3 °C 8.1 °C 1020.9 hPa East 8.0 km/h 12.9 km/h 86 % 0.0 mm 244 W/m2
09:20 10.7 °C 8.2 °C 1020.9 hPa ENE 3.2 km/h 11.3 km/h 85 % 0.0 mm 260 W/m2
09:25 11.0 °C 8.4 °C 1020.9 hPa East 8.0 km/h 12.9 km/h 84 % 0.0 mm 276 W/m2
09:30 11.4 °C 8.6 °C 1020.9 hPa ENE 4.8 km/h 12.9 km/h 83 % 0.0 mm 288 W/m2
09:35 11.7 °C 8.5 °C 1020.9 hPa East 3.2 km/h 11.3 km/h 81 % 0.0 mm 308 W/m2
09:40 12.1 °C 8.9 °C 1020.9 hPa ESE 11.3 km/h 11.3 km/h 81 % 0.0 mm 322 W/m2
09:45 12.3 °C 8.9 °C 1020.9 hPa Calm   12.9 km/h 80 % 0.0 mm 338 W/m2
09:50 12.6 °C 9.1 °C 1020.9 hPa East 4.8 km/h 12.9 km/h 79 % 0.0 mm 353 W/m2
09:55 12.7 °C 9.0 °C 1020.9 hPa ENE 12.9 km/h 14.5 km/h 78 % 0.0 mm 369 W/m2
10:00 12.9 °C 9.2 °C 1020.9 hPa ESE 4.8 km/h 14.5 km/h 78 % 0.0 mm 381 W/m2
10:05 13.2 °C 9.3 °C 1020.9 hPa ESE 9.7 km/h 14.5 km/h 77 % 0.0 mm 397 W/m2
10:10 13.5 °C 9.5 °C 1020.9 hPa ENE 6.4 km/h 14.5 km/h 77 % 0.0 mm 411 W/m2
10:15 13.7 °C 9.4 °C 1020.9 hPa NE 8.0 km/h 14.5 km/h 75 % 0.0 mm 427 W/m2
10:20 14.1 °C 9.7 °C 1020.9 hPa ESE 6.4 km/h 16.1 km/h 75 % 0.0 mm 443 W/m2
10:25 14.3 °C 9.9 °C 1020.9 hPa East 3.2 km/h 16.1 km/h 75 % 0.0 mm 455 W/m2
10:30 14.4 °C 9.7 °C 1020.5 hPa East 14.5 km/h 16.1 km/h 73 % 0.0 mm 469 W/m2
10:35 14.8 °C 10.0 °C 1020.5 hPa ESE 12.9 km/h 19.3 km/h 73 % 0.0 mm 482 W/m2
10:40 15.3 °C 10.5 °C 1020.5 hPa East 4.8 km/h 19.3 km/h 73 % 0.0 mm 497 W/m2
10:45 15.6 °C 10.1 °C 1020.5 hPa East 11.3 km/h 17.7 km/h 70 % 0.0 mm 512 W/m2
10:50 15.8 °C 10.2 °C 1020.5 hPa East 8.0 km/h 17.7 km/h 69 % 0.0 mm 524 W/m2
10:55 16.0 °C 10.3 °C 1020.5 hPa East 14.5 km/h 16.1 km/h 69 % 0.0 mm 538 W/m2
11:00 16.2 °C 10.5 °C 1020.5 hPa ESE 14.5 km/h 17.7 km/h 69 % 0.0 mm 552 W/m2
11:05 16.4 °C 10.2 °C 1020.9 hPa East 16.1 km/h 20.9 km/h 67 % 0.0 mm 563 W/m2
11:10 16.7 °C 10.3 °C 1020.5 hPa ESE 6.4 km/h 20.9 km/h 66 % 0.0 mm 575 W/m2
11:15 17.0 °C 10.6 °C 1020.5 hPa SE 8.0 km/h 17.7 km/h 66 % 0.0 mm 589 W/m2
11:20 17.2 °C 10.6 °C 1020.5 hPa ENE 12.9 km/h 19.3 km/h 65 % 0.0 mm 599 W/m2
11:25 17.5 °C 10.8 °C 1020.5 hPa East 3.2 km/h 20.9 km/h 65 % 0.0 mm 612 W/m2
11:30 17.8 °C 10.9 °C 1020.5 hPa SE 14.5 km/h 20.9 km/h 64 % 0.0 mm 626 W/m2
11:35 17.9 °C 10.5 °C 1020.5 hPa SE 14.5 km/h 20.9 km/h 62 % 0.0 mm 635 W/m2
11:40 18.1 °C 11.0 °C 1020.5 hPa SE 6.4 km/h 17.7 km/h 63 % 0.0 mm 645 W/m2
11:45 18.3 °C 10.9 °C 1020.5 hPa ENE 11.3 km/h 20.9 km/h 62 % 0.0 mm 654 W/m2
11:50 18.7 °C 11.5 °C 1020.5 hPa East 4.8 km/h 20.9 km/h 63 % 0.0 mm 664 W/m2
11:55 18.8 °C 10.9 °C 1020.5 hPa ESE 12.9 km/h 24.1 km/h 60 % 0.0 mm 675 W/m2
12:00 19.0 °C 11.8 °C 1020.5 hPa East 4.8 km/h 24.1 km/h 63 % 0.0 mm 684 W/m2
12:05 18.9 °C 11.0 °C 1020.5 hPa SE 12.9 km/h 19.3 km/h 60 % 0.0 mm 694 W/m2
12:10 19.0 °C 11.3 °C 1020.2 hPa East 4.8 km/h 19.3 km/h 61 % 0.0 mm 703 W/m2
12:15 19.1 °C 10.9 °C 1020.2 hPa East 4.8 km/h 20.9 km/h 59 % 0.0 mm 712 W/m2
12:20 19.8 °C 11.5 °C 1020.2 hPa ESE 4.8 km/h 20.9 km/h 59 % 0.0 mm 719 W/m2
12:25 20.3 °C 12.6 °C 1020.2 hPa ENE 4.8 km/h 14.5 km/h 61 % 0.0 mm 724 W/m2
12:30 20.3 °C 11.7 °C 1020.2 hPa East 3.2 km/h 16.1 km/h 58 % 0.0 mm 735 W/m2
12:35 20.2 °C 11.4 °C 1020.2 hPa ESE 12.9 km/h 19.3 km/h 57 % 0.0 mm 738 W/m2
12:40 20.2 °C 11.9 °C 1020.2 hPa East 12.9 km/h 19.3 km/h 59 % 0.0 mm 749 W/m2
12:45 20.6 °C 12.0 °C 1020.2 hPa East 16.1 km/h 17.7 km/h 58 % 0.0 mm 751 W/m2
12:50 20.6 °C 12.0 °C 1020.2 hPa ENE 16.1 km/h 20.9 km/h 58 % 0.0 mm 756 W/m2
12:55 20.6 °C 12.1 °C 1020.2 hPa East 8.0 km/h 20.9 km/h 58 % 0.0 mm 759 W/m2
13:00 20.8 °C 11.5 °C 1020.2 hPa ESE 19.3 km/h 20.9 km/h 55 % 0.0 mm 765 W/m2
13:05 20.9 °C 11.8 °C 1020.2 hPa ESE 4.8 km/h 20.9 km/h 56 % 0.0 mm 770 W/m2
13:10 21.2 °C 11.5 °C 1019.9 hPa ESE 11.3 km/h 20.9 km/h 54 % 0.0 mm 775 W/m2
13:15 21.8 °C 13.1 °C 1019.9 hPa ESE 9.7 km/h 19.3 km/h 58 % 0.0 mm 780 W/m2
13:20 21.8 °C 12.4 °C 1019.9 hPa East 14.5 km/h 20.9 km/h 55 % 0.0 mm 779 W/m2
13:25 21.7 °C 12.0 °C 1019.9 hPa ESE 3.2 km/h 20.9 km/h 54 % 0.0 mm 788 W/m2
13:30 22.2 °C 12.4 °C 1019.9 hPa SE 11.3 km/h 17.7 km/h 54 % 0.0 mm 789 W/m2
13:35 22.4 °C 12.3 °C 1019.9 hPa SSE 6.4 km/h 17.7 km/h 53 % 0.0 mm 791 W/m2
13:40 22.3 °C 11.7 °C 1019.9 hPa SE 14.5 km/h 19.3 km/h 51 % 0.0 mm 791 W/m2
13:45 22.4 °C 12.4 °C 1019.5 hPa ESE 16.1 km/h 20.9 km/h 53 % 0.0 mm 793 W/m2
13:50 22.3 °C 11.7 °C 1019.5 hPa SE 17.7 km/h 20.9 km/h 51 % 0.0 mm 793 W/m2
13:55 22.7 °C 12.6 °C 1019.5 hPa ESE 4.8 km/h 24.1 km/h 53 % 0.0 mm 795 W/m2
14:00 22.9 °C 11.9 °C 1019.5 hPa ESE 14.5 km/h 24.1 km/h 50 % 0.0 mm 793 W/m2
14:05 22.9 °C 12.2 °C 1019.5 hPa ESE 4.8 km/h 22.5 km/h 51 % 0.0 mm 800 W/m2
14:10 23.2 °C 12.5 °C 1019.5 hPa South 6.4 km/h 17.7 km/h 51 % 0.0 mm 793 W/m2
14:15 23.3 °C 12.6 °C 1019.5 hPa ESE 4.8 km/h 19.3 km/h 51 % 0.0 mm 796 W/m2
14:20 23.7 °C 12.9 °C 1019.5 hPa ESE 14.5 km/h 19.3 km/h 51 % 0.0 mm 796 W/m2
14:25 23.4 °C 11.5 °C 1019.5 hPa ESE 4.8 km/h 20.9 km/h 47 % 0.0 mm 788 W/m2
14:30 23.2 °C 11.6 °C 1019.5 hPa SE 6.4 km/h 20.9 km/h 48 % 0.0 mm 788 W/m2
14:35 23.3 °C 11.3 °C 1019.5 hPa SE 3.2 km/h 20.9 km/h 47 % 0.0 mm 791 W/m2
14:40 23.7 °C 12.0 °C 1019.5 hPa SE 11.3 km/h 20.9 km/h 48 % 0.0 mm 789 W/m2
14:45 23.9 °C 12.9 °C 1019.2 hPa East 4.8 km/h 17.7 km/h 50 % 0.0 mm 780 W/m2
14:50 24.1 °C 12.0 °C 1019.2 hPa SE 14.5 km/h 17.7 km/h 47 % 0.0 mm 779 W/m2
14:55 23.8 °C 12.7 °C 1019.2 hPa South 9.7 km/h 19.3 km/h 50 % 0.0 mm 772 W/m2
15:00 23.8 °C 12.5 °C 1019.2 hPa ESE 4.8 km/h 19.3 km/h 49 % 0.0 mm 765 W/m2
15:10 24.3 °C 12.6 °C 1019.2 hPa North 4.8 km/h 19.3 km/h 48 % 0.0 mm 761 W/m2
15:20 24.1 °C 12.4 °C 1019.2 hPa South 8.0 km/h 17.7 km/h 48 % 0.0 mm 751 W/m2
15:25 24.3 °C 12.2 °C 1018.8 hPa SSE 6.4 km/h 17.7 km/h 47 % 0.0 mm 744 W/m2
15:30 24.3 °C 11.9 °C 1018.8 hPa ESE 16.1 km/h 17.7 km/h 46 % 0.0 mm 740 W/m2
15:35 24.5 °C 12.8 °C 1018.8 hPa SE 12.9 km/h 17.7 km/h 48 % 0.0 mm 729 W/m2
15:40 24.5 °C 12.1 °C 1018.8 hPa East 1.6 km/h 22.5 km/h 46 % 0.0 mm 726 W/m2
15:45 24.7 °C 12.3 °C 1018.8 hPa ESE 16.1 km/h 22.5 km/h 46 % 0.0 mm 715 W/m2
15:50 24.8 °C 12.1 °C 1018.8 hPa ESE 11.3 km/h 20.9 km/h 45 % 0.0 mm 708 W/m2
15:55 24.7 °C 12.0 °C 1018.8 hPa SSW 9.7 km/h 19.3 km/h 45 % 0.0 mm 698 W/m2
16:00 24.9 °C 13.2 °C 1018.8 hPa SE 9.7 km/h 19.3 km/h 48 % 0.0 mm 693 W/m2
16:05 25.1 °C 13.3 °C 1018.8 hPa ESE 6.4 km/h 17.7 km/h 48 % 0.0 mm 680 W/m2
16:10 25.2 °C 12.4 °C 1018.5 hPa SE 12.9 km/h 17.7 km/h 45 % 0.0 mm 670 W/m2
16:15 25.2 °C 11.7 °C 1018.5 hPa South 11.3 km/h 16.1 km/h 43 % 0.0 mm 668 W/m2
16:20 25.3 °C 12.1 °C 1018.5 hPa East 11.3 km/h 20.9 km/h 44 % 0.0 mm 659 W/m2
16:25 25.2 °C 11.7 °C 1018.5 hPa East 9.7 km/h 20.9 km/h 43 % 0.0 mm 650 W/m2
16:30 25.2 °C 12.1 °C 1018.5 hPa South 4.8 km/h 19.3 km/h 44 % 0.0 mm 631 W/m2
16:35 25.2 °C 11.7 °C 1018.5 hPa SSE 4.8 km/h 19.3 km/h 43 % 0.0 mm 624 W/m2
16:40 25.2 °C 11.7 °C 1018.5 hPa SE 6.4 km/h 16.1 km/h 43 % 0.0 mm 615 W/m2
16:45 25.1 °C 12.0 °C 1018.5 hPa ESE 4.8 km/h 16.1 km/h 44 % 0.0 mm 606 W/m2
16:50 25.7 °C 12.1 °C 1018.5 hPa SE 9.7 km/h 14.5 km/h 43 % 0.0 mm 594 W/m2
16:55 25.4 °C 11.2 °C 1018.5 hPa East 8.0 km/h 16.1 km/h 41 % 0.0 mm 585 W/m2
17:00 25.3 °C 11.4 °C 1018.5 hPa ESE 4.8 km/h 16.1 km/h 42 % 0.0 mm 571 W/m2
17:05 25.1 °C 11.2 °C 1018.2 hPa ESE 3.2 km/h 16.1 km/h 42 % 0.0 mm 561 W/m2
17:10 25.4 °C 11.2 °C 1018.2 hPa South 6.4 km/h 16.1 km/h 41 % 0.0 mm 543 W/m2
17:15 25.2 °C 11.4 °C 1018.2 hPa SSE 6.4 km/h 14.5 km/h 42 % 0.0 mm 534 W/m2
17:20 25.3 °C 11.8 °C 1018.2 hPa Calm   14.5 km/h 43 % 0.0 mm 517 W/m2
17:25 23.8 °C 13.3 °C 1018.2 hPa West 3.2 km/h 12.9 km/h 52 % 0.0 mm 276 W/m2
17:30 22.6 °C 12.5 °C 1018.2 hPa WNW 4.8 km/h 6.4 km/h 53 % 0.0 mm 394 W/m2
17:35 22.3 °C 12.3 °C 1018.2 hPa West 4.8 km/h 6.4 km/h 53 % 0.0 mm 330 W/m2
17:40 22.1 °C 12.6 °C 1018.2 hPa West 6.4 km/h 9.7 km/h 55 % 0.0 mm 457 W/m2
17:45 22.1 °C 12.3 °C 1018.2 hPa SW 1.6 km/h 9.7 km/h 54 % 0.0 mm 236 W/m2
17:50 21.3 °C 12.2 °C 1018.2 hPa NW 6.4 km/h 8.0 km/h 56 % 0.0 mm 155 W/m2
17:55 21.2 °C 12.6 °C 1018.2 hPa West 1.6 km/h 8.0 km/h 58 % 0.0 mm 116 W/m2
18:00 20.8 °C 12.2 °C 1018.2 hPa West 12.9 km/h 12.9 km/h 58 % 0.0 mm 176 W/m2
18:05 19.8 °C 12.0 °C 1018.2 hPa WSW 4.8 km/h 12.9 km/h 61 % 0.0 mm 192 W/m2
18:10 19.5 °C 12.0 °C 1018.2 hPa WSW 6.4 km/h 12.9 km/h 62 % 0.0 mm 381 W/m2
18:15 19.1 °C 11.6 °C 1018.2 hPa Calm   11.3 km/h 62 % 0.0 mm 367 W/m2
18:20 18.9 °C 12.0 °C 1018.2 hPa SW 1.6 km/h 11.3 km/h 64 % 0.0 mm 352 W/m2
18:25 18.5 °C 11.8 °C 1018.2 hPa West 3.2 km/h 11.3 km/h 65 % 0.0 mm 338 W/m2
18:30 18.5 °C 11.8 °C 1018.2 hPa West 11.3 km/h 11.3 km/h 65 % 0.0 mm 325 W/m2
18:35 18.2 °C 11.5 °C 1018.2 hPa WSW 11.3 km/h 12.9 km/h 65 % 0.0 mm 309 W/m2
18:40 18.1 °C 11.2 °C 1018.2 hPa SW 4.8 km/h 12.9 km/h 64 % 0.0 mm 294 W/m2
18:45 18.1 °C 11.4 °C 1018.2 hPa West 3.2 km/h 11.3 km/h 65 % 0.0 mm 279 W/m2
18:50 17.9 °C 11.2 °C 1018.2 hPa WSW 6.4 km/h 11.3 km/h 65 % 0.0 mm 178 W/m2
18:55 17.8 °C 11.2 °C 1018.2 hPa Calm   11.3 km/h 65 % 0.0 mm 104 W/m2
19:00 17.9 °C 11.5 °C 1018.2 hPa West 6.4 km/h 11.3 km/h 66 % 0.0 mm 47 W/m2
19:05 17.9 °C 11.5 °C 1018.2 hPa WNW 3.2 km/h 9.7 km/h 66 % 0.0 mm 47 W/m2
19:10 17.8 °C 11.2 °C 1018.2 hPa West 3.2 km/h 9.7 km/h 65 % 0.0 mm 44 W/m2
19:15 17.7 °C 11.0 °C 1018.2 hPa WNW 4.8 km/h 9.7 km/h 65 % 0.0 mm 44 W/m2
19:20 17.4 °C 11.0 °C 1018.2 hPa WSW 3.2 km/h 11.3 km/h 66 % 0.0 mm 40 W/m2
19:25 17.2 °C 10.8 °C 1018.2 hPa WSW 4.8 km/h 11.3 km/h 66 % 0.0 mm 54 W/m2
19:30 17.1 °C 10.9 °C 1018.5 hPa WSW 4.8 km/h 9.7 km/h 67 % 0.0 mm 47 W/m2
19:35 16.9 °C 10.7 °C 1018.2 hPa WSW 1.6 km/h 11.3 km/h 67 % 0.0 mm 47 W/m2
19:40 16.7 °C 10.7 °C 1018.2 hPa WSW 6.4 km/h 11.3 km/h 68 % 0.0 mm 35 W/m2
19:45 16.7 °C 10.7 °C 1018.5 hPa West 8.0 km/h 11.3 km/h 68 % 0.0 mm 35 W/m2
19:50 16.6 °C 10.7 °C 1018.2 hPa WNW 1.6 km/h 11.3 km/h 68 % 0.0 mm 32 W/m2
19:55 16.5 °C 10.8 °C 1018.2 hPa West 4.8 km/h 9.7 km/h 69 % 0.0 mm 30 W/m2
20:00 16.3 °C 10.8 °C 1018.2 hPa West 4.8 km/h 8.0 km/h 70 % 0.0 mm 28 W/m2
20:05 16.2 °C 10.7 °C 1018.2 hPa West 1.6 km/h 8.0 km/h 70 % 0.0 mm 25 W/m2
20:10 16.1 °C 10.8 °C 1018.2 hPa Calm   8.0 km/h 71 % 0.0 mm 25 W/m2
20:15 16.1 °C 10.8 °C 1018.2 hPa Calm   4.8 km/h 71 % 0.0 mm 21 W/m2
20:20 15.8 °C 10.7 °C 1018.2 hPa Calm   1.6 km/h 72 % 0.0 mm 18 W/m2
20:25 15.5 °C 10.9 °C 1018.2 hPa Calm   1.6 km/h 74 % 0.0 mm 16 W/m2
20:30 15.2 °C 10.8 °C 1018.2 hPa Calm   1.6 km/h 75 % 0.0 mm 12 W/m2
20:35 14.9 °C 10.7 °C 1018.2 hPa Calm     76 % 0.0 mm 11 W/m2
20:40 14.8 °C 10.6 °C 1018.2 hPa Calm     76 % 0.0 mm 7 W/m2
20:45 14.5 °C 10.5 °C 1018.2 hPa Calm     77 % 0.0 mm 5 W/m2
20:50 14.3 °C 10.7 °C 1018.2 hPa Calm     79 % 0.0 mm 0 W/m2
20:55 14.1 °C 10.7 °C 1018.2 hPa Calm     80 % 0.0 mm 0 W/m2
21:00 13.8 °C 10.4 °C 1018.2 hPa Calm     80 % 0.0 mm 0 W/m2
21:05 13.7 °C 10.5 °C 1018.2 hPa Calm     81 % 0.0 mm 0 W/m2
21:10 13.5 °C 10.5 °C 1018.2 hPa Calm     82 % 0.0 mm 0 W/m2
21:15 13.5 °C 10.5 °C 1018.5 hPa Calm   1.6 km/h 82 % 0.0 mm 0 W/m2
21:20 13.3 °C 10.5 °C 1018.5 hPa Calm   1.6 km/h 83 % 0.0 mm 0 W/m2
21:25 13.4 °C 10.4 °C 1018.5 hPa Calm   1.6 km/h 82 % 0.0 mm 0 W/m2
21:30 13.3 °C 10.3 °C 1018.5 hPa Calm   6.4 km/h 82 % 0.0 mm 0 W/m2
21:35 13.4 °C 10.4 °C 1018.5 hPa Calm   6.4 km/h 82 % 0.0 mm 0 W/m2
21:40 13.3 °C 10.5 °C 1018.5 hPa Calm   4.8 km/h 83 % 0.0 mm 0 W/m2
21:45 13.2 °C 10.6 °C 1018.5 hPa Calm   4.8 km/h 84 % 0.0 mm 0 W/m2
21:50 12.8 °C 10.4 °C 1018.5 hPa Calm   1.6 km/h 85 % 0.0 mm 0 W/m2
21:55 12.4 °C 10.0 °C 1018.5 hPa Calm     85 % 0.0 mm 0 W/m2
22:00 12.1 °C 9.8 °C 1018.5 hPa SSE 1.6 km/h 1.6 km/h 86 % 0.0 mm 0 W/m2
22:05 12.1 °C 10.0 °C 1018.5 hPa Calm   1.6 km/h 87 % 0.0 mm 0 W/m2
22:10 12.2 °C 9.9 °C 1018.5 hPa SSE 1.6 km/h 1.6 km/h 86 % 0.0 mm 0 W/m2
22:15 12.1 °C 10.0 °C 1018.5 hPa Calm   1.6 km/h 87 % 0.0 mm 0 W/m2
22:20 12.1 °C 10.0 °C 1018.5 hPa Calm   1.6 km/h 87 % 0.0 mm 0 W/m2
22:25 11.9 °C 10.0 °C 1018.5 hPa Calm   1.6 km/h 88 % 0.0 mm 0 W/m2
22:30 11.9 °C 9.8 °C 1018.5 hPa Calm   1.6 km/h 87 % 0.0 mm 0 W/m2
22:35 11.6 °C 9.7 °C 1018.5 hPa Calm   1.6 km/h 88 % 0.0 mm 0 W/m2
22:40 11.3 °C 9.6 °C 1018.5 hPa Calm   1.6 km/h 89 % 0.0 mm 0 W/m2
22:45 11.2 °C 9.3 °C 1018.5 hPa Calm     88 % 0.0 mm 0 W/m2
22:50 11.0 °C 9.3 °C 1018.5 hPa Calm     89 % 0.0 mm 0 W/m2
22:55 10.8 °C 9.3 °C 1018.5 hPa Calm     90 % 0.0 mm 0 W/m2
23:00 11.1 °C 9.5 °C 1018.8 hPa Calm     90 % 0.0 mm 0 W/m2
23:05 11.1 °C 9.5 °C 1018.8 hPa Calm   1.6 km/h 90 % 0.0 mm 0 W/m2
23:10 11.3 °C 9.7 °C 1018.8 hPa Calm   1.6 km/h 90 % 0.0 mm 0 W/m2
23:15 11.3 °C 9.4 °C 1018.8 hPa Calm   1.6 km/h 88 % 0.0 mm 0 W/m2
23:20 11.2 °C 9.6 °C 1018.8 hPa Calm     90 % 0.0 mm 0 W/m2
23:25 11.2 °C 9.4 °C 1018.8 hPa Calm     89 % 0.0 mm 0 W/m2
23:30 11.0 °C 9.4 °C 1018.8 hPa Calm     90 % 0.0 mm 0 W/m2
23:35 10.6 °C 9.0 °C 1018.8 hPa Calm     90 % 0.0 mm 0 W/m2
23:40 10.2 °C 8.6 °C 1018.8 hPa Calm     90 % 0.0 mm 0 W/m2
23:45 9.9 °C 8.5 °C 1018.8 hPa Calm     91 % 0.0 mm 0 W/m2
23:50 9.8 °C 8.6 °C 1018.8 hPa Calm     92 % 0.0 mm 0 W/m2
23:55 9.8 °C 8.8 °C 1018.8 hPa Calm     93 % 0.0 mm 0 W/m2
Avec l'autorisation de Weather Underground - 1.75 mb